Terminal Aerodrome Forecast
Issued by NWS Albany, NY

Home | Current Version | Previous Version | Text Only | Print | Product List | Glossary On
Versions: 1 2 3 4 5 6 7 8 9 10 11 12 13 14 15 16 17 18
000
FTUS41 KALY 271131
TAFGFL
TAF
KGFL 271131Z 2712/2812 21007KT P6SM BKN150
     FM271400 20008KT P6SM VCSH BKN080
     FM271800 21010G15KT P6SM VCSH BKN045 PROB30 2721/2724
      VRB20G35KT 2SM TSRA OVC012CB
     FM280000 20004KT P6SM VCSH BKN050
     FM280700 20003KT 3SM BR BKN025=

USA.gov is the U.S. government's official web portal to all federal, state and local government web resources and services.